TKS weather

Tokushima Airport/JMSDF Air Base
Tokushima, Tokushima Prefecture, Japan

Public forecast

Using degrees Celsius for public forecast. Weather courtesy of forecast.io.

Current aviation weather report (METAR) for Tokushima Airport/JMSDF Air Base

Retrieved 2019/10/21 06:00 UTC (5 minutes ago):

RJOS 210600Z 33008KT 9999 -SHRA FEW012 BKN030 OVC100 19/17 Q1012

Closest aviation forecast (TAF) to Tokushima Airport/JMSDF Air Base

Closest forecast is Takamatsu Airport, 29.8 nm (55.1 km) W. Retrieved 2019/10/21 06:30 UTC (0 seconds ago):

TAF TAF RJOT 210514Z 2106/2212 07009KT 8000 -RA FEW008 SCT015 BKN025 TEMPO 2106/2113 4000 -RA BR FEW003 BKN008 BKN015 BECMG 2118/2121 28008KT